Arcanum, OH

3:16 AM EST on February 13, 2016 (GMT -0500)
Franklin-Monroe | | Change Station
CLOSE
Current Station
Personal Weather Station
Location: Arcanum, OH
Elevation: 1050 ft
Nearby Weather Stations
Active Advisory: Wind Chill Advisory

Elev 1050 ft 39.95 °N, 84.45 °W | Updated 5 minutes ago

Overcast
Overcast
13.2 °F
Feels Like -3 °F
N
17.0
Wind Variable Wind from NW
Gusts 20.0 mph

Today
High -- | Low -- °F
--% Chance of Precip.
Yesterday
High -- | Low -- °F
Precip. -- in
Pressure 30.32 in
Visibility 10.0 miles
Clouds Scattered Clouds 2100 ft
Mostly Cloudy 2700 ft
Mostly Cloudy 3300 ft
Windchill -3 °F
Dew Point 7 °F
Humidity 77%
Rainfall 0.00 in
Snow Depth Not available.
7:34 AM 6:11 PM
Waxing Crescent, 28% visible
METAR KVES 130755Z AUTO 31011KT 10SM SCT021 BKN027 BKN033 M11/M13 A3032 RMK AO2
Pressure 30.32 in
Visibility 10.0 miles
Clouds Scattered Clouds 2100 ft
Mostly Cloudy 2700 ft
Mostly Cloudy 3300 ft
Windchill -3 °F
Dew Point 7 °F
Humidity 77%
Rainfall 0.00 in
Snow Depth Not available.
7:34 AM 6:11 PM
Waxing Crescent, 28% visible
METAR KVES 130755Z AUTO 31011KT 10SM SCT021 BKN027 BKN033 M11/M13 A3032 RMK AO2

10-Day Weather Forecast

Almanac

Astronomy

Feb. 13, 2016 Rise Set
Actual Time
Civil Twilight
Nautical Twilight
Astronomical Twilight
Moon
Length of Visible Light
Length of Day
Tomorrow will be .
, % of the Moon is Illuminated

Today's Extremes

State Highs State Lows

Community

WunderPhotos

Upload Photos

1,892,536 photos uploaded!

WunderBlog® & News

Nearby

Air Quality

  Air Quality AQ Index Pollutant
Not available.

Snow Depth

Station Depth Elevation

Earthquake Activity

City Distance Mag. Time & Date
Minimum magnitude displayed is 2.5.

Coastal Water Temperatures

Place Temperature

Stations

Nearby Weather Stations

Station Location Temp. Windchill Dew Point Humidity Wind Precip. Elev Updated Type
                   

Watches & Warnings

Wind Chill Advisory
Issued: 9:56 PM EST Feb. 12, 2016 – National Weather Service

... Wind Chill Advisory remains in effect until 10 am EST
Saturday...

* wind chill readings... wind chill readings of 10 to 15 degrees
below zero can be expected early Saturday morning.

* Impacts... the frigid conditions will be dangerous to those
venturing outside. Exposure may cause frostbite.

* Winds... winds will be out of the northwest from 10 to 20
mph... with gusts as high as 25 mph.

* Temperatures... low temperatures will range from 5 to 10 degrees
above zero.

Precautionary/preparedness actions...

A Wind Chill Advisory is issued when a strong wind will combine
with cold temperatures to create dangerously cold conditions for
exposed skin. The wind will make it feel like it is between
10 and 24 degrees below zero for a period of several hours. Those
planning to venture outdoors should use common sense and dress
warmly... making sure that all exposed skin is covered.



Hatzos